createdAt,value
2023-05-09T00:02:01.215Z,54.83
2023-05-09T00:04:38.216Z,54.82
2023-05-09T00:07:11.174Z,54.86
2023-05-09T00:09:43.496Z,54.76
2023-05-09T00:12:29.648Z,54.72
2023-05-09T00:14:58.950Z,54.68
2023-05-09T00:17:30.717Z,54.88
2023-05-09T00:19:58.338Z,54.72
2023-05-09T00:22:29.074Z,54.82
2023-05-09T00:24:56.847Z,54.88
2023-05-09T00:27:24.510Z,54.93
2023-05-09T00:29:52.453Z,54.97
2023-05-09T00:32:21.456Z,54.86
2023-05-09T00:34:49.147Z,54.92
2023-05-09T00:37:21.015Z,55.11
2023-05-09T00:39:49.017Z,54.95
2023-05-09T00:42:17.341Z,55.03
2023-05-09T00:44:45.001Z,55.03
2023-05-09T00:47:33.062Z,55.08
2023-05-09T00:50:00.711Z,55.04
2023-05-09T00:52:46.904Z,55.00
2023-05-09T00:55:33.271Z,55.00
2023-05-09T00:58:00.935Z,55.13
2023-05-09T01:00:32.550Z,55.02
2023-05-09T01:03:20.591Z,55.16
2023-05-09T01:05:57.001Z,55.22
2023-05-09T01:08:38.614Z,55.18
2023-05-09T01:11:32.397Z,55.14
2023-05-09T01:14:09.431Z,55.26
2023-05-09T01:17:02.940Z,55.20
2023-05-09T01:20:05.950Z,55.18
2023-05-09T01:22:37.277Z,55.08
2023-05-09T01:25:24.859Z,54.99
2023-05-09T01:28:01.793Z,55.24
2023-05-09T01:30:32.413Z,55.22
2023-05-09T01:33:11.249Z,55.06
2023-05-09T01:36:03.345Z,55.22
2023-05-09T01:38:33.131Z,55.31
2023-05-09T01:41:05.433Z,55.35
2023-05-09T01:43:39.169Z,55.31
2023-05-09T01:46:09.507Z,55.12
2023-05-09T01:48:58.359Z,55.29
2023-05-09T01:51:27.899Z,55.42
2023-05-09T01:53:59.079Z,55.30
2023-05-09T01:56:38.660Z,55.30
2023-05-09T01:59:09.148Z,55.33
2023-05-09T02:01:57.595Z,55.50
2023-05-09T02:04:44.843Z,55.35
2023-05-09T02:07:13.877Z,55.40
2023-05-09T02:09:44.746Z,55.38
2023-05-09T02:12:12.386Z,55.17
2023-05-09T02:14:58.893Z,55.51
2023-05-09T02:17:46.620Z,55.55
2023-05-09T02:20:14.638Z,55.28
2023-05-09T02:22:47.832Z,55.31
2023-05-09T02:25:18.677Z,55.32
2023-05-09T02:27:48.085Z,55.30
2023-05-09T02:30:40.179Z,55.33
2023-05-09T02:33:11.703Z,55.50
2023-05-09T02:35:45.022Z,55.39
2023-05-09T02:38:16.745Z,55.52
2023-05-09T02:40:50.335Z,55.29
2023-05-09T02:43:23.113Z,55.31
2023-05-09T02:45:50.877Z,55.38
2023-05-09T02:48:20.140Z,55.33
2023-05-09T02:51:06.604Z,55.52
2023-05-09T02:53:52.631Z,55.63
2023-05-09T02:56:20.980Z,55.37
2023-05-09T02:58:51.345Z,55.57
2023-05-09T03:01:19.323Z,55.44
2023-05-09T03:03:49.455Z,55.42
2023-05-09T03:06:17.327Z,55.37
2023-05-09T03:08:45.059Z,55.50
2023-05-09T03:11:12.733Z,55.51
2023-05-09T03:13:43.399Z,55.48
2023-05-09T03:16:21.316Z,55.60
2023-05-09T03:19:01.668Z,55.47
2023-05-09T03:21:31.901Z,55.58
2023-05-09T03:24:04.956Z,55.46
2023-05-09T03:26:53.412Z,55.53
2023-05-09T03:29:21.058Z,55.47
2023-05-09T03:32:07.309Z,55.55
2023-05-09T03:34:36.377Z,55.52
2023-05-09T03:37:13.027Z,55.61
2023-05-09T03:39:45.681Z,55.61
2023-05-09T03:42:32.092Z,55.60
2023-05-09T03:45:01.475Z,55.62
2023-05-09T03:47:47.822Z,55.59
2023-05-09T03:50:17.022Z,55.65
2023-05-09T03:52:44.697Z,55.59
2023-05-09T03:55:30.928Z,55.64
2023-05-09T03:57:58.885Z,55.58
2023-05-09T04:00:45.399Z,55.62
2023-05-09T04:03:13.942Z,55.48
2023-05-09T04:05:53.013Z,55.57
2023-05-09T04:08:20.730Z,55.63
2023-05-09T04:11:07.287Z,55.68
2023-05-09T04:13:35.182Z,55.56
2023-05-09T04:16:11.877Z,55.68
2023-05-09T04:18:58.160Z,55.52
2023-05-09T04:21:27.383Z,55.66
2023-05-09T04:24:05.786Z,55.58
2023-05-09T04:26:52.186Z,55.42
2023-05-09T04:29:19.855Z,55.25
2023-05-09T04:31:49.146Z,55.35
2023-05-09T04:34:35.764Z,55.30
2023-05-09T04:37:05.121Z,55.26
2023-05-09T04:39:33.576Z,55.32
2023-05-09T04:42:01.276Z,55.38
2023-05-09T04:44:29.114Z,55.30
2023-05-09T04:47:05.968Z,55.25
2023-05-09T04:49:52.191Z,55.15
2023-05-09T04:52:31.867Z,55.03
2023-05-09T04:55:18.275Z,55.12
2023-05-09T04:57:46.240Z,55.10
2023-05-09T05:00:15.955Z,55.03
2023-05-09T05:03:02.084Z,54.86
2023-05-09T05:05:35.999Z,54.88
2023-05-09T05:08:08.165Z,54.83
2023-05-09T05:10:54.606Z,54.76
2023-05-09T05:13:22.476Z,54.78
2023-05-09T05:15:55.081Z,54.83
2023-05-09T05:18:32.534Z,54.55
2023-05-09T05:21:02.369Z,54.68
2023-05-09T05:23:32.218Z,54.85
2023-05-09T05:26:00.637Z,54.65
2023-05-09T05:28:46.715Z,54.68
2023-05-09T05:31:14.407Z,54.57
2023-05-09T05:33:51.027Z,54.35
2023-05-09T05:36:23.822Z,54.41
2023-05-09T05:38:57.420Z,54.43
2023-05-09T05:41:35.065Z,54.42
2023-05-09T05:44:07.593Z,54.47
2023-05-09T05:46:54.016Z,54.51
2023-05-09T05:49:21.696Z,54.61
2023-05-09T05:51:58.609Z,54.70
2023-05-09T05:54:32.608Z,54.63
2023-05-09T05:57:04.209Z,54.49
2023-05-09T05:59:51.496Z,54.22
2023-05-09T06:02:19.696Z,53.86
2023-05-09T06:04:47.547Z,53.99
2023-05-09T06:07:33.970Z,53.99
2023-05-09T06:10:03.992Z,53.90
2023-05-09T06:12:32.524Z,53.85
2023-05-09T06:15:18.981Z,53.61
2023-05-09T06:17:46.910Z,53.33
2023-05-09T06:20:34.570Z,53.41
2023-05-09T06:23:05.266Z,53.54
2023-05-09T06:25:37.841Z,53.37
2023-05-09T06:28:05.644Z,53.44
2023-05-09T06:30:51.937Z,53.37
2023-05-09T06:33:24.632Z,53.10
2023-05-09T06:36:11.670Z,52.93
2023-05-09T06:38:40.198Z,53.03
2023-05-09T06:41:12.227Z,52.89
2023-05-09T06:43:40.287Z,53.07
2023-05-09T06:46:09.819Z,52.66
2023-05-09T06:48:55.976Z,52.03
2023-05-09T06:51:23.740Z,51.74
2023-05-09T06:53:58.223Z,51.70
2023-05-09T06:56:46.387Z,52.00
2023-05-09T06:59:16.255Z,52.06
2023-05-09T07:01:46.028Z,52.22
2023-05-09T07:04:14.598Z,52.03
2023-05-09T07:06:52.201Z,52.20
2023-05-09T07:09:38.437Z,52.11
2023-05-09T07:12:07.952Z,52.07
2023-05-09T07:14:35.728Z,52.31
2023-05-09T07:17:24.045Z,52.26
2023-05-09T07:20:11.057Z,52.43
2023-05-09T07:22:38.755Z,52.57
2023-05-09T07:25:25.026Z,52.25
2023-05-09T07:27:53.978Z,52.09
2023-05-09T07:30:24.244Z,51.96
2023-05-09T07:32:54.812Z,51.65
2023-05-09T07:35:41.245Z,51.70
2023-05-09T07:38:27.690Z,51.61
2023-05-09T07:40:55.385Z,51.42
2023-05-09T07:43:42.873Z,51.27
2023-05-09T07:46:10.533Z,50.92
2023-05-09T07:48:56.864Z,50.93
2023-05-09T07:51:24.502Z,50.42
2023-05-09T07:53:55.106Z,50.54
2023-05-09T07:56:23.855Z,50.47
2023-05-09T07:58:55.711Z,50.39
2023-05-09T08:01:23.729Z,50.33
2023-05-09T08:03:52.331Z,50.23
2023-05-09T08:06:24.637Z,50.27
2023-05-09T08:08:52.281Z,50.13
2023-05-09T08:11:24.701Z,50.00
2023-05-09T08:14:13.166Z,49.96
2023-05-09T08:16:43.288Z,49.85
2023-05-09T08:19:15.872Z,50.23
2023-05-09T08:22:01.899Z,50.47
2023-05-09T08:24:32.876Z,50.58
2023-05-09T08:27:19.318Z,50.44
2023-05-09T08:30:08.358Z,50.45
2023-05-09T08:32:36.184Z,50.34
2023-05-09T08:35:22.237Z,50.74
2023-05-09T08:37:49.893Z,50.62
2023-05-09T08:40:20.865Z,50.48
2023-05-09T08:42:49.754Z,50.60
2023-05-09T08:45:28.374Z,50.48
2023-05-09T08:48:16.597Z,50.44
2023-05-09T08:50:45.138Z,50.14
2023-05-09T08:53:13.526Z,50.21
2023-05-09T08:55:45.556Z,50.10
2023-05-09T08:58:23.364Z,50.43
2023-05-09T09:00:55.518Z,50.16
2023-05-09T09:03:26.241Z,50.06
2023-05-09T09:06:13.274Z,50.11
2023-05-09T09:08:41.633Z,50.58
2023-05-09T09:11:14.216Z,50.47
2023-05-09T09:13:53.736Z,50.40
2023-05-09T09:16:35.209Z,50.38
2023-05-09T09:19:10.576Z,50.39
2023-05-09T09:22:00.751Z,50.40
2023-05-09T09:24:28.320Z,50.20
2023-05-09T09:27:14.822Z,50.19
2023-05-09T09:29:42.479Z,50.23
2023-05-09T09:32:18.475Z,50.23
2023-05-09T09:35:06.947Z,49.99
2023-05-09T09:37:41.689Z,49.74
2023-05-09T09:40:18.707Z,50.02
2023-05-09T09:42:48.358Z,49.74
2023-05-09T09:45:20.900Z,49.87
2023-05-09T09:47:59.538Z,49.71
2023-05-09T09:50:31.330Z,49.84
2023-05-09T09:53:09.621Z,49.87
2023-05-09T09:55:55.956Z,49.58
2023-05-09T09:58:25.000Z,49.58
2023-05-09T10:01:13.827Z,49.45
2023-05-09T10:03:44.920Z,49.29
2023-05-09T10:06:31.808Z,49.35
2023-05-09T10:08:59.462Z,49.59
2023-05-09T10:11:31.801Z,49.35
2023-05-09T10:14:00.394Z,49.36
2023-05-09T10:16:49.130Z,49.25
2023-05-09T10:19:21.900Z,49.43
2023-05-09T10:21:54.526Z,49.01
2023-05-09T10:24:29.433Z,49.05
2023-05-09T10:27:05.130Z,49.25
2023-05-09T10:29:36.798Z,48.98
2023-05-09T10:32:28.707Z,48.87
2023-05-09T10:35:03.475Z,48.60
2023-05-09T10:37:50.958Z,48.69
2023-05-09T10:40:20.615Z,48.85
2023-05-09T10:43:08.258Z,48.71
2023-05-09T10:45:36.707Z,48.53
2023-05-09T10:48:09.050Z,48.69
2023-05-09T10:50:57.621Z,48.80
2023-05-09T10:53:26.222Z,48.38
2023-05-09T10:55:58.905Z,48.64
2023-05-09T10:58:28.571Z,48.23
2023-05-09T11:00:58.897Z,48.36
2023-05-09T11:03:29.798Z,48.20
2023-05-09T11:06:50.888Z,48.00
2023-05-09T11:09:39.209Z,48.19
2023-05-09T11:12:12.436Z,48.07
2023-05-09T11:15:06.393Z,47.97
2023-05-09T11:18:06.476Z,47.83
2023-05-09T11:20:53.573Z,47.98
2023-05-09T11:23:28.165Z,48.03
2023-05-09T11:26:06.591Z,47.86
2023-05-09T11:28:37.696Z,47.92
2023-05-09T11:31:12.334Z,47.83
2023-05-09T11:33:56.509Z,47.82
2023-05-09T11:36:33.883Z,47.68
2023-05-09T11:39:06.549Z,47.73
2023-05-09T11:41:53.102Z,47.65
2023-05-09T11:44:22.171Z,47.73
2023-05-09T11:46:51.669Z,47.56
2023-05-09T11:49:29.837Z,47.49
2023-05-09T11:52:07.220Z,47.42
2023-05-09T11:54:54.781Z,47.40
2023-05-09T11:57:22.497Z,47.37
2023-05-09T11:59:53.882Z,47.31
2023-05-09T12:02:41.011Z,47.39
2023-05-09T12:05:11.346Z,47.37
2023-05-09T12:07:41.337Z,47.20
2023-05-09T12:10:12.705Z,47.24
2023-05-09T12:12:44.611Z,47.29
2023-05-09T12:15:22.388Z,47.43
2023-05-09T12:18:09.273Z,47.25
2023-05-09T12:20:44.396Z,47.19
2023-05-09T12:23:15.865Z,47.04
2023-05-09T12:25:50.044Z,47.03
2023-05-09T12:28:37.033Z,47.09
2023-05-09T12:31:23.781Z,46.94
2023-05-09T12:34:10.680Z,47.01
2023-05-09T12:36:38.518Z,46.99
2023-05-09T12:39:24.824Z,46.89
2023-05-09T12:42:01.693Z,46.97
2023-05-09T12:44:51.659Z,46.60
2023-05-09T12:47:19.331Z,46.68
2023-05-09T12:49:50.952Z,46.64
2023-05-09T12:52:50.090Z,46.63
2023-05-09T12:55:22.095Z,46.69
2023-05-09T12:58:01.859Z,46.77
2023-05-09T13:00:43.286Z,46.93
2023-05-09T13:03:37.571Z,46.86
2023-05-09T13:06:13.901Z,46.91
2023-05-09T13:09:01.677Z,46.92
2023-05-09T13:11:48.656Z,46.84
2023-05-09T13:14:36.247Z,46.89
2023-05-09T13:17:22.846Z,46.96
2023-05-09T13:19:53.665Z,47.13
2023-05-09T13:22:26.699Z,47.03
2023-05-09T13:25:13.715Z,46.97
2023-05-09T13:28:00.019Z,47.07
2023-05-09T13:30:29.236Z,47.10
2023-05-09T13:33:16.587Z,46.87
2023-05-09T13:35:53.506Z,46.84
2023-05-09T13:38:40.983Z,46.83
2023-05-09T13:41:09.578Z,46.71
2023-05-09T13:43:46.461Z,46.84
2023-05-09T13:46:34.232Z,46.96
2023-05-09T13:49:01.958Z,46.86
2023-05-09T13:51:48.576Z,47.11
2023-05-09T13:54:18.580Z,46.97
2023-05-09T13:56:48.592Z,47.00
2023-05-09T13:59:25.468Z,46.98
2023-05-09T14:02:13.202Z,47.08
2023-05-09T14:05:02.776Z,47.22
2023-05-09T14:07:31.569Z,47.23
2023-05-09T14:10:18.437Z,47.37
2023-05-09T14:12:47.248Z,47.35
2023-05-09T14:15:20.076Z,47.22
2023-05-09T14:17:49.961Z,47.34
2023-05-09T14:20:37.433Z,47.32
2023-05-09T14:23:08.108Z,47.36
2023-05-09T14:25:40.678Z,47.38
2023-05-09T14:28:10.412Z,47.54
2023-05-09T14:30:57.378Z,47.55
2023-05-09T14:33:27.130Z,47.73
2023-05-09T14:36:07.211Z,47.80
2023-05-09T14:38:38.625Z,47.87
2023-05-09T14:41:24.832Z,48.09
2023-05-09T14:43:52.524Z,48.20
2023-05-09T14:46:20.518Z,48.32
2023-05-09T14:48:53.562Z,48.37
2023-05-09T14:51:30.347Z,48.83
2023-05-09T14:54:00.628Z,48.91
2023-05-09T14:56:31.447Z,49.18
2023-05-09T14:58:59.131Z,49.21
2023-05-09T15:01:36.887Z,49.50
2023-05-09T15:04:06.888Z,49.47
2023-05-09T15:06:34.729Z,49.28
2023-05-09T15:09:02.633Z,49.23
2023-05-09T15:11:36.403Z,49.33
2023-05-09T15:14:14.702Z,49.52
2023-05-09T15:16:43.244Z,49.66
2023-05-09T15:19:14.369Z,49.83
2023-05-09T15:21:42.102Z,49.84
2023-05-09T15:24:09.961Z,50.03
2023-05-09T15:26:37.650Z,50.10
2023-05-09T15:29:05.419Z,50.07
2023-05-09T15:31:34.309Z,50.37
2023-05-09T15:34:02.182Z,50.42
2023-05-09T15:36:32.067Z,50.69
2023-05-09T15:38:59.896Z,50.68
2023-05-09T15:41:27.882Z,51.49
2023-05-09T15:43:55.548Z,51.96
2023-05-09T15:46:23.293Z,51.54
2023-05-09T15:48:54.015Z,52.09
2023-05-09T15:51:23.353Z,53.90
2023-05-09T15:53:52.747Z,51.71
2023-05-09T15:56:21.627Z,52.21
2023-05-09T15:58:49.253Z,52.49
2023-05-09T16:01:17.250Z,52.44
2023-05-09T16:03:46.134Z,51.91
2023-05-09T16:06:14.243Z,51.87
2023-05-09T16:08:42.040Z,52.03
2023-05-09T16:11:11.046Z,51.74
2023-05-09T16:13:38.857Z,51.66
2023-05-09T16:16:06.980Z,51.76
2023-05-09T16:18:37.991Z,52.01
2023-05-09T16:21:06.119Z,52.20
2023-05-09T16:23:35.826Z,52.02
2023-05-09T16:26:03.487Z,52.05
2023-05-09T16:28:34.172Z,51.85
2023-05-09T16:31:04.677Z,52.64
2023-05-09T16:33:33.194Z,52.15
2023-05-09T16:36:01.424Z,52.28
2023-05-09T16:38:30.183Z,53.02
2023-05-09T16:40:58.821Z,52.90
2023-05-09T16:43:26.487Z,53.38
2023-05-09T16:45:55.837Z,53.56
2023-05-09T16:48:23.594Z,53.87
2023-05-09T16:50:53.568Z,53.90
2023-05-09T16:53:22.653Z,53.58
2023-05-09T16:55:50.467Z,53.74
2023-05-09T16:58:18.140Z,53.64
2023-05-09T17:00:46.062Z,53.70
2023-05-09T17:03:15.110Z,54.15
2023-05-09T17:05:42.733Z,53.94
2023-05-09T17:08:10.515Z,54.03
2023-05-09T17:10:39.497Z,53.97
2023-05-09T17:13:08.818Z,53.97
2023-05-09T17:15:38.246Z,54.32
2023-05-09T17:18:06.657Z,54.41
2023-05-09T17:20:35.681Z,54.05
2023-05-09T17:23:04.222Z,54.36
2023-05-09T17:25:33.387Z,54.14
2023-05-09T17:28:01.255Z,54.22
2023-05-09T17:30:29.155Z,54.37
2023-05-09T17:32:56.863Z,54.33
2023-05-09T17:35:25.749Z,54.50
2023-05-09T17:37:54.847Z,54.89
2023-05-09T17:40:22.801Z,54.98
2023-05-09T17:42:54.376Z,55.42
2023-05-09T17:45:25.005Z,55.32
2023-05-09T17:48:03.437Z,55.50
2023-05-09T17:50:32.939Z,55.59
2023-05-09T17:53:02.415Z,55.66
2023-05-09T17:55:30.277Z,55.77
2023-05-09T17:57:58.150Z,55.76
2023-05-09T18:00:26.101Z,55.98
2023-05-09T18:02:53.897Z,55.85
2023-05-09T18:05:23.340Z,55.98
2023-05-09T18:07:51.873Z,56.01
2023-05-09T18:10:22.210Z,56.24
2023-05-09T18:12:49.937Z,56.30
2023-05-09T18:15:17.583Z,56.13
2023-05-09T18:17:48.169Z,56.12
2023-05-09T18:20:16.221Z,55.98
2023-05-09T18:22:44.258Z,56.06
2023-05-09T18:25:13.869Z,56.17
2023-05-09T18:27:42.874Z,56.29
2023-05-09T18:30:11.364Z,56.31
2023-05-09T18:32:39.184Z,56.18
2023-05-09T18:35:08.111Z,56.18
2023-05-09T18:37:37.240Z,56.56
2023-05-09T18:40:05.940Z,56.48
2023-05-09T18:42:34.305Z,56.45
2023-05-09T18:45:05.771Z,56.43
2023-05-09T18:47:33.483Z,56.46
2023-05-09T18:50:02.848Z,56.43
2023-05-09T18:52:32.557Z,56.28
2023-05-09T18:55:00.545Z,56.38
2023-05-09T18:57:28.223Z,56.64
2023-05-09T18:59:56.058Z,56.38
2023-05-09T19:02:25.521Z,56.41
2023-05-09T19:04:53.282Z,56.77
2023-05-09T19:07:22.678Z,56.59
2023-05-09T19:09:51.284Z,56.60
2023-05-09T19:12:18.970Z,56.73
2023-05-09T19:14:46.839Z,56.74
2023-05-09T19:17:14.482Z,56.94
2023-05-09T19:19:44.468Z,56.91
2023-05-09T19:22:31.305Z,56.56
2023-05-09T19:24:59.161Z,56.54
2023-05-09T19:27:27.218Z,56.49
2023-05-09T19:29:55.855Z,56.57
2023-05-09T19:32:26.659Z,56.29
2023-05-09T19:34:56.314Z,56.41
2023-05-09T19:37:42.907Z,56.91
2023-05-09T19:40:29.669Z,57.34
2023-05-09T19:42:57.387Z,57.50
2023-05-09T19:45:27.285Z,57.61
2023-05-09T19:47:56.056Z,57.74
2023-05-09T19:50:34.761Z,57.90
2023-05-09T19:53:13.613Z,57.91
2023-05-09T19:55:46.821Z,58.29
2023-05-09T19:58:33.294Z,58.57
2023-05-09T20:01:20.222Z,58.64
2023-05-09T20:04:07.476Z,58.78
2023-05-09T20:06:36.761Z,59.23
2023-05-09T20:09:07.582Z,59.52
2023-05-09T20:11:35.930Z,59.42
2023-05-09T20:14:06.743Z,59.60
2023-05-09T20:16:34.478Z,60.03
2023-05-09T20:19:20.907Z,59.84
2023-05-09T20:21:59.031Z,59.95
2023-05-09T20:24:45.702Z,59.99
2023-05-09T20:27:13.911Z,60.21
2023-05-09T20:29:41.562Z,60.01
2023-05-09T20:32:12.211Z,60.08
2023-05-09T20:34:39.977Z,60.14
2023-05-09T20:37:27.723Z,60.13
2023-05-09T20:39:55.598Z,60.09
2023-05-09T20:42:23.965Z,60.17
2023-05-09T20:44:51.873Z,59.95
2023-05-09T20:47:20.539Z,59.97
2023-05-09T20:49:48.200Z,59.98
2023-05-09T20:52:17.481Z,59.77
2023-05-09T20:54:50.336Z,59.70
2023-05-09T20:57:18.043Z,59.52
2023-05-09T20:59:47.645Z,59.79
2023-05-09T21:02:35.572Z,59.82
2023-05-09T21:05:07.124Z,59.67
2023-05-09T21:07:53.598Z,59.80
2023-05-09T21:10:41.315Z,59.87
2023-05-09T21:13:12.188Z,59.73
2023-05-09T21:15:58.364Z,59.42
2023-05-09T21:18:26.218Z,59.43
2023-05-09T21:20:57.452Z,59.22
2023-05-09T21:23:43.576Z,59.17
2023-05-09T21:26:13.162Z,59.00
2023-05-09T21:28:45.378Z,59.25
2023-05-09T21:31:31.534Z,58.91
2023-05-09T21:33:59.378Z,58.86
2023-05-09T21:36:29.092Z,58.85
2023-05-09T21:39:15.758Z,58.97
2023-05-09T21:41:53.968Z,58.76
2023-05-09T21:44:31.429Z,58.62
2023-05-09T21:47:17.865Z,58.66
2023-05-09T21:49:49.435Z,58.62
2023-05-09T21:52:35.861Z,58.37
2023-05-09T21:55:08.229Z,58.17
2023-05-09T21:57:41.288Z,58.39
2023-05-09T22:00:15.198Z,58.36
2023-05-09T22:03:01.906Z,58.18
2023-05-09T22:05:29.625Z,58.12
2023-05-09T22:08:16.064Z,58.16
2023-05-09T22:11:02.383Z,58.17
2023-05-09T22:13:42.617Z,58.25
2023-05-09T22:16:29.923Z,57.98
2023-05-09T22:19:17.356Z,57.56
2023-05-09T22:21:48.898Z,58.12
2023-05-09T22:24:21.358Z,58.09
2023-05-09T22:27:07.920Z,58.02
2023-05-09T22:29:37.108Z,57.61
2023-05-09T22:32:07.531Z,57.90
2023-05-09T22:34:55.059Z,57.92
2023-05-09T22:37:22.962Z,57.96
2023-05-09T22:39:52.478Z,57.84
2023-05-09T22:42:21.160Z,57.87
2023-05-09T22:44:59.296Z,57.91
2023-05-09T22:47:27.143Z,57.77
2023-05-09T22:49:56.050Z,57.97
2023-05-09T22:52:24.571Z,57.77
2023-05-09T22:54:54.008Z,57.94
2023-05-09T22:57:23.654Z,57.82
2023-05-09T22:59:51.520Z,57.69
2023-05-09T23:02:21.295Z,57.85
2023-05-09T23:04:49.008Z,57.50
2023-05-09T23:07:17.604Z,57.44
2023-05-09T23:09:45.327Z,57.58
2023-05-09T23:12:13.054Z,57.80
2023-05-09T23:14:40.732Z,57.73
2023-05-09T23:17:08.404Z,57.68
2023-05-09T23:19:37.982Z,57.60
2023-05-09T23:22:05.950Z,57.77
2023-05-09T23:24:33.607Z,57.75
2023-05-09T23:27:02.475Z,57.32
2023-05-09T23:29:30.233Z,57.61
2023-05-09T23:31:57.890Z,57.59
2023-05-09T23:34:26.677Z,57.67
2023-05-09T23:36:55.691Z,57.79
2023-05-09T23:39:27.170Z,57.52
2023-05-09T23:42:13.739Z,57.39
2023-05-09T23:44:41.399Z,57.43
2023-05-09T23:47:10.906Z,57.56
2023-05-09T23:49:44.298Z,57.65
2023-05-09T23:52:24.288Z,57.67
2023-05-09T23:54:52.532Z,57.69
2023-05-09T23:57:21.941Z,57.61
